sensor_id;sensor_type;location;lat;lon;timestamp;temperature;humidity
74458;SHT31;62896;51.032;3.712;2022-09-03T14:09:13;26.9;50
74458;SHT31;62896;51.032;3.712;2022-09-03T14:12:36;26.9;50
74458;SHT31;62896;51.032;3.712;2022-09-03T14:15:55;26.9;50
74458;SHT31;62896;51.032;3.712;2022-09-03T14:19:14;31.1;42
74458;SHT31;62896;51.032;3.712;2022-09-03T14:22:37;31.1;42
74458;SHT31;62896;51.032;3.712;2022-09-03T14:25:53;31.1;42
74458;SHT31;62896;51.032;3.712;2022-09-03T14:29:14;34.6;34
74458;SHT31;62896;51.032;3.712;2022-09-03T14:32:36;34.6;34
74458;SHT31;62896;51.032;3.712;2022-09-03T14:35:56;34.6;34
74458;SHT31;62896;51.032;3.712;2022-09-03T14:39:16;31.7;46
74458;SHT31;62896;51.032;3.712;2022-09-03T14:42:36;31.7;46
74458;SHT31;62896;51.032;3.712;2022-09-03T14:45:56;31.7;46
74458;SHT31;62896;51.032;3.712;2022-09-03T14:49:16;28;74
74458;SHT31;62896;51.032;3.712;2022-09-03T14:52:38;28;74
74458;SHT31;62896;51.032;3.712;2022-09-03T14:56:00;28;74
74458;SHT31;62896;51.032;3.712;2022-09-03T14:59:18;28;74
74458;SHT31;62896;51.032;3.712;2022-09-03T15:02:40;28;74
74458;SHT31;62896;51.032;3.712;2022-09-03T15:05:57;28;74
74458;SHT31;62896;51.032;3.712;2022-09-03T15:09:16;28;74
74458;SHT31;62896;51.032;3.712;2022-09-03T15:12:34;28;74
74458;SHT31;62896;51.032;3.712;2022-09-03T15:15:57;28;74
74458;SHT31;62896;51.032;3.712;2022-09-03T15:19:15;28;74
74458;SHT31;62896;51.032;3.712;2022-09-03T15:22:35;28;74
74458;SHT31;62896;51.032;3.712;2022-09-03T15:25:57;28;74
74458;SHT31;62896;51.032;3.712;2022-09-03T15:29:19;28;74
74458;SHT31;62896;51.032;3.712;2022-09-03T15:32:40;28;74
74458;SHT31;62896;51.032;3.712;2022-09-03T15:35:57;28;74
74458;SHT31;62896;51.032;3.712;2022-09-03T15:39:15;28;74
74458;SHT31;62896;51.032;3.712;2022-09-03T15:42:34;28;74
74458;SHT31;62896;51.032;3.712;2022-09-03T15:45:53;28;74
74458;SHT31;62896;51.032;3.712;2022-09-03T15:49:17;28;74
74458;SHT31;62896;51.032;3.712;2022-09-03T15:52:36;28;74
74458;SHT31;62896;51.032;3.712;2022-09-03T15:56:00;28;74
74458;SHT31;62896;51.032;3.712;2022-09-03T15:59:14;28;74
74458;SHT31;62896;51.032;3.712;2022-09-03T16:02:37;28;74
74458;SHT31;62896;51.032;3.712;2022-09-03T16:05:53;28;74
74458;SHT31;62896;51.032;3.712;2022-09-03T16:09:17;28;74
74458;SHT31;62896;51.032;3.712;2022-09-03T16:12:33;28;74
74458;SHT31;62896;51.032;3.712;2022-09-03T16:15:56;28;74
74458;SHT31;62896;51.032;3.712;2022-09-03T16:19:14;28;74
74458;SHT31;62896;51.032;3.712;2022-09-03T16:22:37;28;74
74458;SHT31;62896;51.032;3.712;2022-09-03T16:25:54;28;74
74458;SHT31;62896;51.032;3.712;2022-09-03T16:29:13;28;74
74458;SHT31;62896;51.032;3.712;2022-09-03T16:32:36;28;74
74458;SHT31;62896;51.032;3.712;2022-09-03T16:35:54;28;74
74458;SHT31;62896;51.032;3.712;2022-09-03T16:39:15;28;74
74458;SHT31;62896;51.032;3.712;2022-09-03T16:42:33;28;74
74458;SHT31;62896;51.032;3.712;2022-09-03T16:45:56;28;74
74458;SHT31;62896;51.032;3.712;2022-09-03T16:49:21;28;74
74458;SHT31;62896;51.032;3.712;2022-09-03T16:52:36;28;74
74458;SHT31;62896;51.032;3.712;2022-09-03T16:55:56;28;74
74458;SHT31;62896;51.032;3.712;2022-09-03T16:59:17;28;74
74458;SHT31;62896;51.032;3.712;2022-09-03T17:02:40;28;74
74458;SHT31;62896;51.032;3.712;2022-09-03T17:07:00;28;74
74458;SHT31;62896;51.032;3.712;2022-09-03T17:09:17;28;74
74458;SHT31;62896;51.032;3.712;2022-09-03T17:12:35;28;74
74458;SHT31;62896;51.032;3.712;2022-09-03T17:15:53;28;74
74458;SHT31;62896;51.032;3.712;2022-09-03T17:19:13;28;74
74458;SHT31;62896;51.032;3.712;2022-09-03T17:22:36;28;74
74458;SHT31;62896;51.032;3.712;2022-09-03T17:25:54;28;74
74458;SHT31;62896;51.032;3.712;2022-09-03T17:29:17;28;74
74458;SHT31;62896;51.032;3.712;2022-09-03T17:32:39;28;74
74458;SHT31;62896;51.032;3.712;2022-09-03T17:35:54;28;74
74458;SHT31;62896;51.032;3.712;2022-09-03T17:39:19;28;74
74458;SHT31;62896;51.032;3.712;2022-09-03T17:42:37;28;74
74458;SHT31;62896;51.032;3.712;2022-09-03T17:45:54;28;74
74458;SHT31;62896;51.032;3.712;2022-09-03T17:49:13;28;74
74458;SHT31;62896;51.032;3.712;2022-09-03T17:52:34;28;74
74458;SHT31;62896;51.032;3.712;2022-09-03T17:55:54;28;74
74458;SHT31;62896;51.032;3.712;2022-09-03T17:59:15;28;74
74458;SHT31;62896;51.032;3.712;2022-09-03T18:02:33;28;74
74458;SHT31;62896;51.032;3.712;2022-09-03T18:05:54;28;74
74458;SHT31;62896;51.032;3.712;2022-09-03T18:09:19;28;74
74458;SHT31;62896;51.032;3.712;2022-09-03T18:12:37;28;74
74458;SHT31;62896;51.032;3.712;2022-09-03T18:15:54;28;74
74458;SHT31;62896;51.032;3.712;2022-09-03T18:19:13;28;74
74458;SHT31;62896;51.032;3.712;2022-09-03T18:22:35;28;74
74458;SHT31;62896;51.032;3.712;2022-09-03T18:25:55;28;74
74458;SHT31;62896;51.032;3.712;2022-09-03T18:29:13;28;74
74458;SHT31;62896;51.032;3.712;2022-09-03T18:32:33;28;74
74458;SHT31;62896;51.032;3.712;2022-09-03T18:35:53;28;74
74458;SHT31;62896;51.032;3.712;2022-09-03T18:39:14;24.3;58
74458;SHT31;62896;51.032;3.712;2022-09-03T18:42:37;24.3;58
74458;SHT31;62896;51.032;3.712;2022-09-03T18:45:54;24.3;58
74458;SHT31;62896;51.032;3.712;2022-09-03T18:49:14;24;59
74458;SHT31;62896;51.032;3.712;2022-09-03T18:52:34;24;59
74458;SHT31;62896;51.032;3.712;2022-09-03T18:55:56;24;59
74458;SHT31;62896;51.032;3.712;2022-09-03T18:59:17;23.9;59
74458;SHT31;62896;51.032;3.712;2022-09-03T19:02:39;23.9;59
74458;SHT31;62896;51.032;3.712;2022-09-03T19:05:56;23.9;59
74458;SHT31;62896;51.032;3.712;2022-09-03T19:09:15;23.7;60
74458;SHT31;62896;51.032;3.712;2022-09-03T19:12:37;23.7;60
74458;SHT31;62896;51.032;3.712;2022-09-03T19:15:55;23.7;60
74458;SHT31;62896;51.032;3.712;2022-09-03T19:19:16;23.6;60
74458;SHT31;62896;51.032;3.712;2022-09-03T19:22:33;23.6;60
74458;SHT31;62896;51.032;3.712;2022-09-03T19:25:53;23.6;60
74458;SHT31;62896;51.032;3.712;2022-09-03T19:29:14;23.6;61
74458;SHT31;62896;51.032;3.712;2022-09-03T19:32:35;23.6;61
74458;SHT31;62896;51.032;3.712;2022-09-03T19:35:55;23.6;61
74458;SHT31;62896;51.032;3.712;2022-09-03T19:39:16;23.5;61
74458;SHT31;62896;51.032;3.712;2022-09-03T19:42:37;23.5;61
74458;SHT31;62896;51.032;3.712;2022-09-03T19:45:53;23.5;61
74458;SHT31;62896;51.032;3.712;2022-09-03T19:49:14;23.3;62
74458;SHT31;62896;51.032;3.712;2022-09-03T19:52:34;23.3;62
74458;SHT31;62896;51.032;3.712;2022-09-03T19:55:53;23.3;62
74458;SHT31;62896;51.032;3.712;2022-09-03T19:59:15;23.1;63
74458;SHT31;62896;51.032;3.712;2022-09-03T20:02:33;23.1;63
74458;SHT31;62896;51.032;3.712;2022-09-03T20:05:53;23.1;63
74458;SHT31;62896;51.032;3.712;2022-09-03T20:09:13;23;63
74458;SHT31;62896;51.032;3.712;2022-09-03T20:12:33;23;63
74458;SHT31;62896;51.032;3.712;2022-09-03T20:15:55;23;63
74458;SHT31;62896;51.032;3.712;2022-09-03T20:19:15;23;63
74458;SHT31;62896;51.032;3.712;2022-09-03T20:22:35;23;63
74458;SHT31;62896;51.032;3.712;2022-09-03T20:25:56;23;63
74458;SHT31;62896;51.032;3.712;2022-09-03T20:29:19;22.7;65
74458;SHT31;62896;51.032;3.712;2022-09-03T20:32:41;22.7;65
74458;SHT31;62896;51.032;3.712;2022-09-03T20:35:56;22.7;65
74458;SHT31;62896;51.032;3.712;2022-09-03T20:39:18;22.3;66
74458;SHT31;62896;51.032;3.712;2022-09-03T20:42:38;22.3;66
74458;SHT31;62896;51.032;3.712;2022-09-03T20:45:59;22.3;66
74458;SHT31;62896;51.032;3.712;2022-09-03T20:49:15;22;67
74458;SHT31;62896;51.032;3.712;2022-09-03T20:52:35;22;67
74458;SHT31;62896;51.032;3.712;2022-09-03T20:55:53;22;67
74458;SHT31;62896;51.032;3.712;2022-09-03T20:59:15;21.9;68
74458;SHT31;62896;51.032;3.712;2022-09-03T21:02:39;21.9;68
74458;SHT31;62896;51.032;3.712;2022-09-03T21:05:57;21.9;68
74458;SHT31;62896;51.032;3.712;2022-09-03T21:09:16;21.8;69
74458;SHT31;62896;51.032;3.712;2022-09-03T21:12:35;21.8;69
74458;SHT31;62896;51.032;3.712;2022-09-03T21:15:53;21.8;69
74458;SHT31;62896;51.032;3.712;2022-09-03T21:19:16;21.5;71
74458;SHT31;62896;51.032;3.712;2022-09-03T21:22:36;21.5;71
74458;SHT31;62896;51.032;3.712;2022-09-03T21:25:54;21.5;71
74458;SHT31;62896;51.032;3.712;2022-09-03T21:29:16;21.3;73
74458;SHT31;62896;51.032;3.712;2022-09-03T21:32:34;21.3;73
74458;SHT31;62896;51.032;3.712;2022-09-03T21:35:53;21.3;73
74458;SHT31;62896;51.032;3.712;2022-09-03T21:39:13;21.1;75
74458;SHT31;62896;51.032;3.712;2022-09-03T21:42:34;21.1;75
74458;SHT31;62896;51.032;3.712;2022-09-03T21:45:54;21.1;75
74458;SHT31;62896;51.032;3.712;2022-09-03T21:49:14;21;76
74458;SHT31;62896;51.032;3.712;2022-09-03T21:52:36;21;76
74458;SHT31;62896;51.032;3.712;2022-09-03T21:55:57;21;76
74458;SHT31;62896;51.032;3.712;2022-09-03T21:59:16;20.8;78
74458;SHT31;62896;51.032;3.712;2022-09-03T22:02:33;20.8;78
74458;SHT31;62896;51.032;3.712;2022-09-03T22:05:54;20.8;78
74458;SHT31;62896;51.032;3.712;2022-09-03T22:09:15;20.8;78
74458;SHT31;62896;51.032;3.712;2022-09-03T22:12:35;20.8;78
74458;SHT31;62896;51.032;3.712;2022-09-03T22:15:53;20.8;78
74458;SHT31;62896;51.032;3.712;2022-09-03T22:19:13;20.7;79
74458;SHT31;62896;51.032;3.712;2022-09-03T22:22:34;20.7;79
74458;SHT31;62896;51.032;3.712;2022-09-03T22:25:54;20.7;79
74458;SHT31;62896;51.032;3.712;2022-09-03T22:29:14;20.5;79
74458;SHT31;62896;51.032;3.712;2022-09-03T22:32:35;20.5;79
74458;SHT31;62896;51.032;3.712;2022-09-03T22:35:56;20.5;79
74458;SHT31;62896;51.032;3.712;2022-09-03T22:39:15;20.4;80
74458;SHT31;62896;51.032;3.712;2022-09-03T22:42:37;20.4;80
74458;SHT31;62896;51.032;3.712;2022-09-03T22:45:57;20.4;80
74458;SHT31;62896;51.032;3.712;2022-09-03T22:49:17;20.2;81
74458;SHT31;62896;51.032;3.712;2022-09-03T22:52:33;20.2;81
74458;SHT31;62896;51.032;3.712;2022-09-03T22:55:54;20.2;81
74458;SHT31;62896;51.032;3.712;2022-09-03T22:59:14;20.2;81
74458;SHT31;62896;51.032;3.712;2022-09-03T23:02:33;20.2;81
74458;SHT31;62896;51.032;3.712;2022-09-03T23:05:54;20.2;81
74458;SHT31;62896;51.032;3.712;2022-09-03T23:09:14;20.1;81
74458;SHT31;62896;51.032;3.712;2022-09-03T23:12:34;20.1;81
74458;SHT31;62896;51.032;3.712;2022-09-03T23:15:56;20.1;81
74458;SHT31;62896;51.032;3.712;2022-09-03T23:19:14;20;82
74458;SHT31;62896;51.032;3.712;2022-09-03T23:22:34;20;82
74458;SHT31;62896;51.032;3.712;2022-09-03T23:25:53;20;82
74458;SHT31;62896;51.032;3.712;2022-09-03T23:29:14;20;82
74458;SHT31;62896;51.032;3.712;2022-09-03T23:32:33;20;82
74458;SHT31;62896;51.032;3.712;2022-09-03T23:35:55;20;82
74458;SHT31;62896;51.032;3.712;2022-09-03T23:39:14;19.8;83
74458;SHT31;62896;51.032;3.712;2022-09-03T23:42:36;19.8;83
74458;SHT31;62896;51.032;3.712;2022-09-03T23:45:54;19.8;83
74458;SHT31;62896;51.032;3.712;2022-09-03T23:49:14;19.8;83
74458;SHT31;62896;51.032;3.712;2022-09-03T23:52:38;19.8;83
74458;SHT31;62896;51.032;3.712;2022-09-03T23:55:57;19.8;83
74458;SHT31;62896;51.032;3.712;2022-09-03T23:59:14;19.6;84
